createdAt,value
2018-07-20T00:00:44.065Z,5.40
2018-07-20T00:01:44.104Z,5.10
2018-07-20T00:02:44.142Z,5.40
2018-07-20T00:03:44.180Z,5.90
2018-07-20T00:04:44.217Z,5.60
2018-07-20T00:05:44.278Z,6.10
2018-07-20T00:06:44.295Z,6.60
2018-07-20T00:07:44.332Z,5.00
2018-07-20T00:08:44.372Z,7.10
2018-07-20T00:09:44.406Z,4.80
2018-07-20T00:10:44.446Z,5.40
2018-07-20T00:11:44.484Z,7.50
2018-07-20T00:12:44.523Z,10.70
2018-07-20T00:13:44.575Z,7.00
2018-07-20T00:14:44.598Z,7.70
2018-07-20T00:15:44.634Z,7.10
2018-07-20T00:16:44.694Z,5.10
2018-07-20T00:17:44.711Z,7.10
2018-07-20T00:18:44.748Z,5.30
2018-07-20T00:19:44.789Z,6.30
2018-07-20T00:20:44.825Z,5.20
2018-07-20T00:21:44.860Z,6.30
2018-07-20T00:22:44.898Z,5.60
2018-07-20T00:23:44.936Z,5.90
2018-07-20T00:24:45.123Z,9.10
2018-07-20T00:25:45.013Z,6.60
2018-07-20T00:26:45.051Z,5.60
2018-07-20T00:27:45.088Z,6.40
2018-07-20T00:28:45.124Z,5.90
2018-07-20T00:29:45.163Z,6.80
2018-07-20T00:30:45.202Z,5.00
2018-07-20T00:31:45.237Z,5.10
2018-07-20T00:32:45.277Z,5.70
2018-07-20T00:33:45.315Z,6.00
2018-07-20T00:34:45.353Z,5.90
2018-07-20T00:35:45.391Z,6.20
2018-07-20T00:36:45.428Z,6.00
2018-07-20T00:37:45.464Z,5.10
2018-07-20T00:38:45.504Z,7.00
2018-07-20T00:39:45.545Z,5.80
2018-07-20T00:40:45.579Z,6.00
2018-07-20T00:41:45.615Z,7.20
2018-07-20T00:42:45.663Z,6.10
2018-07-20T00:43:45.693Z,5.20
2018-07-20T00:44:45.729Z,6.00
2018-07-20T00:45:45.768Z,5.00
2018-07-20T00:46:45.813Z,5.90
2018-07-20T00:47:45.842Z,5.60
2018-07-20T00:48:45.884Z,6.70
2018-07-20T00:49:45.919Z,5.20
2018-07-20T00:50:45.956Z,8.50
2018-07-20T00:51:45.997Z,8.80
2018-07-20T00:52:46.031Z,7.10
2018-07-20T00:53:46.075Z,7.40
2018-07-20T00:54:46.109Z,9.40
2018-07-20T00:55:46.143Z,7.10
2018-07-20T00:56:46.178Z,7.40
2018-07-20T00:57:46.225Z,6.30
2018-07-20T00:58:46.257Z,5.40
2018-07-20T00:59:46.292Z,6.40
2018-07-20T01:00:46.329Z,6.20
2018-07-20T01:01:46.367Z,5.90
2018-07-20T01:02:46.414Z,5.40
2018-07-20T01:03:46.444Z,6.60
2018-07-20T01:04:46.481Z,7.00
2018-07-20T01:05:46.525Z,7.70
2018-07-20T01:06:46.563Z,7.00
2018-07-20T01:07:46.593Z,6.80
2018-07-20T01:08:46.630Z,6.50
2018-07-20T01:09:46.669Z,6.60
2018-07-20T01:10:46.708Z,5.20
2018-07-20T01:11:46.841Z,5.50
2018-07-20T01:12:46.779Z,7.00
2018-07-20T01:13:46.817Z,6.90
2018-07-20T01:14:46.856Z,6.50
2018-07-20T01:15:46.895Z,5.70
2018-07-20T01:16:46.928Z,5.60
2018-07-20T01:17:46.966Z,7.80
2018-07-20T01:18:47.005Z,5.60
2018-07-20T01:19:47.043Z,5.20
2018-07-20T01:20:47.078Z,6.10
2018-07-20T01:21:47.119Z,5.50
2018-07-20T01:22:47.158Z,5.20
2018-07-20T01:23:47.195Z,5.30
2018-07-20T01:24:47.231Z,6.40
2018-07-20T01:25:47.265Z,5.80
2018-07-20T01:26:47.356Z,7.90
2018-07-20T01:27:47.345Z,5.60
2018-07-20T01:28:47.377Z,6.30
2018-07-20T01:29:47.413Z,6.20
2018-07-20T01:30:47.452Z,6.10
2018-07-20T01:31:47.490Z,6.10
2018-07-20T01:32:47.527Z,6.30
2018-07-20T01:33:47.565Z,6.10
2018-07-20T01:34:47.605Z,5.60
2018-07-20T01:35:47.637Z,5.10
2018-07-20T01:36:47.678Z,6.70
2018-07-20T01:37:47.714Z,6.20
2018-07-20T01:38:47.751Z,6.30
2018-07-20T01:39:47.789Z,7.70
2018-07-20T01:40:47.825Z,5.30
2018-07-20T01:41:47.863Z,7.20
2018-07-20T01:42:47.900Z,6.00
2018-07-20T01:43:47.938Z,6.20
2018-07-20T01:44:47.974Z,6.10
2018-07-20T01:45:48.016Z,7.10
2018-07-20T01:46:48.050Z,5.40
2018-07-20T01:47:48.087Z,5.50
2018-07-20T01:48:48.124Z,5.60
2018-07-20T01:49:48.162Z,5.90
2018-07-20T01:50:48.198Z,5.90
2018-07-20T01:51:48.245Z,7.80
2018-07-20T01:52:48.273Z,5.70
2018-07-20T01:53:48.309Z,7.30
2018-07-20T01:54:48.347Z,6.40
2018-07-20T01:55:48.386Z,7.20
2018-07-20T01:56:48.430Z,8.50
2018-07-20T01:57:48.467Z,8.70
2018-07-20T01:58:48.494Z,8.20
2018-07-20T01:59:48.543Z,5.70
2018-07-20T02:00:48.569Z,6.20
2018-07-20T02:01:48.606Z,5.80
2018-07-20T02:02:48.645Z,7.50
2018-07-20T02:03:48.680Z,8.00
2018-07-20T02:04:48.718Z,5.90
2018-07-20T02:05:48.755Z,5.70
2018-07-20T02:06:48.792Z,7.10
2018-07-20T02:07:48.828Z,6.90
2018-07-20T02:08:48.871Z,7.70
2018-07-20T02:09:48.912Z,6.50
2018-07-20T02:10:48.941Z,9.10
2018-07-20T02:11:48.979Z,7.30
2018-07-20T02:12:49.015Z,5.90
2018-07-20T02:13:49.053Z,7.10
2018-07-20T02:14:49.089Z,7.00
2018-07-20T02:15:49.128Z,7.10
2018-07-20T02:16:49.163Z,6.60
2018-07-20T02:17:49.201Z,7.30
2018-07-20T02:18:49.239Z,7.20
2018-07-20T02:19:49.279Z,8.30
2018-07-20T02:20:49.321Z,6.90
2018-07-20T02:21:49.351Z,7.10
2018-07-20T02:22:49.386Z,7.20
2018-07-20T02:23:49.425Z,8.30
2018-07-20T02:24:49.462Z,6.80
2018-07-20T02:25:49.500Z,7.60
2018-07-20T02:26:49.535Z,6.00
2018-07-20T02:27:49.572Z,7.40
2018-07-20T02:28:49.616Z,6.80
2018-07-20T02:29:49.646Z,5.80
2018-07-20T02:30:49.686Z,7.80
2018-07-20T02:31:49.720Z,6.50
2018-07-20T02:32:49.757Z,6.00
2018-07-20T02:33:49.793Z,6.90
2018-07-20T02:34:49.836Z,6.00
2018-07-20T02:35:49.877Z,6.50
2018-07-20T02:36:49.904Z,7.00
2018-07-20T02:37:49.943Z,7.70
2018-07-20T02:38:49.980Z,6.30
2018-07-20T02:39:50.018Z,6.10
2018-07-20T02:40:50.054Z,6.50
2018-07-20T02:41:50.094Z,6.90
2018-07-20T02:42:50.127Z,8.00
2018-07-20T02:43:50.163Z,6.90
2018-07-20T02:44:50.204Z,8.00
2018-07-20T02:45:50.237Z,6.40
2018-07-20T02:46:50.275Z,7.30
2018-07-20T02:47:50.313Z,6.70
2018-07-20T02:48:50.349Z,7.20
2018-07-20T02:49:50.387Z,7.40
2018-07-20T02:50:50.428Z,7.10
2018-07-20T02:51:50.462Z,7.50
2018-07-20T02:52:50.502Z,7.10
2018-07-20T02:53:50.534Z,8.10
2018-07-20T02:54:50.582Z,7.50
2018-07-20T02:55:50.609Z,6.60
2018-07-20T02:56:50.648Z,7.60
2018-07-20T02:57:50.681Z,8.50
2018-07-20T02:58:50.727Z,6.70
2018-07-20T02:59:50.757Z,8.30
2018-07-20T03:00:50.793Z,6.80
2018-07-20T03:01:50.830Z,6.70
2018-07-20T03:02:50.865Z,8.10
2018-07-20T03:03:50.902Z,9.70
2018-07-20T03:04:50.939Z,8.60
2018-07-20T03:05:50.980Z,6.20
2018-07-20T03:06:51.016Z,7.90
2018-07-20T03:07:51.051Z,7.90
2018-07-20T03:08:51.091Z,8.50
2018-07-20T03:09:51.126Z,7.10
2018-07-20T03:10:51.213Z,7.80
2018-07-20T03:11:51.199Z,7.60
2018-07-20T03:12:51.235Z,8.10
2018-07-20T03:13:51.272Z,7.90
2018-07-20T03:14:51.310Z,6.80
2018-07-20T03:15:51.347Z,6.80
2018-07-20T03:16:51.383Z,8.60
2018-07-20T03:17:51.419Z,7.20
2018-07-20T03:18:51.460Z,9.40
2018-07-20T03:19:51.496Z,7.40
2018-07-20T03:20:51.531Z,6.80
2018-07-20T03:21:51.567Z,7.60
2018-07-20T03:22:51.606Z,7.20
2018-07-20T03:23:51.642Z,6.90
2018-07-20T03:24:51.678Z,6.90
2018-07-20T03:25:51.716Z,7.90
2018-07-20T03:26:51.760Z,7.30
2018-07-20T03:27:51.794Z,8.60
2018-07-20T03:28:51.826Z,7.70
2018-07-20T03:29:51.864Z,6.90
2018-07-20T03:30:51.899Z,6.50
2018-07-20T03:31:51.936Z,7.00
2018-07-20T03:32:52.027Z,7.40
2018-07-20T03:33:52.010Z,7.10
2018-07-20T03:34:52.047Z,8.10
2018-07-20T03:35:52.089Z,10.30
2018-07-20T03:36:52.120Z,8.10
2018-07-20T03:37:52.159Z,8.20
2018-07-20T03:38:52.193Z,7.70
2018-07-20T03:39:52.234Z,7.60
2018-07-20T03:40:52.266Z,7.90
2018-07-20T03:41:52.305Z,7.40
2018-07-20T03:42:52.341Z,9.00
2018-07-20T03:43:52.381Z,7.90
2018-07-20T03:44:52.413Z,6.00
2018-07-20T03:45:52.452Z,8.60
2018-07-20T03:46:52.489Z,8.70
2018-07-20T03:47:52.524Z,9.80
2018-07-20T03:48:52.580Z,6.80
2018-07-20T03:49:52.600Z,8.00
2018-07-20T03:50:52.635Z,7.30
2018-07-20T03:51:52.674Z,9.00
2018-07-20T03:52:52.710Z,7.00
2018-07-20T03:53:52.749Z,7.50
2018-07-20T03:54:52.785Z,7.40
2018-07-20T03:55:52.822Z,8.10
2018-07-20T03:56:52.855Z,8.60
2018-07-20T03:57:52.895Z,9.00
2018-07-20T03:58:52.930Z,8.60
2018-07-20T03:59:52.968Z,8.40
2018-07-20T04:00:53.005Z,9.70
2018-07-20T04:01:53.042Z,7.10
2018-07-20T04:02:53.079Z,9.90
2018-07-20T04:03:53.117Z,8.80
2018-07-20T04:04:53.153Z,7.00
2018-07-20T04:05:53.222Z,7.00
2018-07-20T04:06:53.228Z,6.90
2018-07-20T04:07:53.266Z,6.60
2018-07-20T04:08:53.301Z,6.70
2018-07-20T04:09:53.340Z,8.00
2018-07-20T04:10:53.374Z,8.50
2018-07-20T04:11:53.412Z,5.90
2018-07-20T04:12:53.451Z,7.20
2018-07-20T04:13:53.487Z,7.60
2018-07-20T04:14:53.531Z,8.70
2018-07-20T04:15:53.570Z,8.70
2018-07-20T04:16:53.596Z,8.80
2018-07-20T04:17:53.635Z,9.30
2018-07-20T04:18:53.690Z,10.60
2018-07-20T04:19:53.711Z,7.00
2018-07-20T04:20:53.746Z,9.30
2018-07-20T04:21:53.785Z,9.90
2018-07-20T04:22:53.822Z,8.10
2018-07-20T04:23:53.859Z,7.80
2018-07-20T04:24:53.895Z,7.30
2018-07-20T04:25:53.939Z,7.60
2018-07-20T04:26:53.970Z,8.80
2018-07-20T04:27:54.007Z,8.70
2018-07-20T04:28:54.043Z,7.10
2018-07-20T04:29:54.085Z,9.40
2018-07-20T04:30:54.123Z,6.80
2018-07-20T04:31:54.156Z,7.90
2018-07-20T04:32:54.194Z,9.20
2018-07-20T04:33:54.229Z,7.40
2018-07-20T04:34:54.276Z,7.60
2018-07-20T04:35:54.306Z,6.90
2018-07-20T04:36:54.341Z,9.90
2018-07-20T04:37:54.379Z,8.00
2018-07-20T04:38:54.418Z,7.00
2018-07-20T04:39:54.455Z,9.70
2018-07-20T04:40:54.491Z,8.30
2018-07-20T04:41:54.530Z,9.70
2018-07-20T04:42:54.566Z,7.00
2018-07-20T04:43:54.608Z,7.70
2018-07-20T04:44:54.644Z,6.70
2018-07-20T04:45:54.677Z,7.50
2018-07-20T04:46:54.716Z,10.50
2018-07-20T04:47:54.754Z,8.10
2018-07-20T04:48:54.791Z,8.30
2018-07-20T04:49:54.884Z,8.80
2018-07-20T04:50:54.874Z,8.60
2018-07-20T04:51:54.904Z,9.70
2018-07-20T04:52:54.944Z,9.20
2018-07-20T04:53:54.979Z,8.50
2018-07-20T04:54:55.018Z,9.50
2018-07-20T04:55:55.055Z,7.70
2018-07-20T04:56:55.091Z,8.30
2018-07-20T04:57:55.130Z,7.00
2018-07-20T04:58:55.262Z,10.20
2018-07-20T04:59:55.205Z,8.20
2018-07-20T05:00:55.242Z,8.80
2018-07-20T05:01:55.280Z,7.50
2018-07-20T05:02:55.315Z,7.40
2018-07-20T05:03:55.355Z,7.10
2018-07-20T05:04:55.392Z,7.90
2018-07-20T05:05:55.468Z,7.40
2018-07-20T05:06:55.469Z,8.20
2018-07-20T05:07:55.508Z,7.70
2018-07-20T05:08:55.543Z,7.30
2018-07-20T05:09:55.581Z,8.10
2018-07-20T05:10:55.618Z,6.90
2018-07-20T05:11:55.658Z,7.20
2018-07-20T05:12:55.693Z,9.60
2018-07-20T05:13:55.731Z,7.00
2018-07-20T05:14:55.771Z,7.30
2018-07-20T05:15:55.808Z,8.80
2018-07-20T05:16:55.847Z,7.70
2018-07-20T05:17:55.884Z,9.40
2018-07-20T05:18:55.920Z,9.00
2018-07-20T05:19:55.959Z,8.10
2018-07-20T05:20:55.997Z,9.40
2018-07-20T05:21:56.035Z,6.90
2018-07-20T05:22:56.172Z,11.50
2018-07-20T05:23:56.113Z,9.00
2018-07-20T05:24:56.149Z,6.50
2018-07-20T05:25:56.187Z,7.00
2018-07-20T05:26:56.225Z,8.50
2018-07-20T05:27:56.263Z,7.00
2018-07-20T05:28:56.302Z,7.10
2018-07-20T05:29:56.438Z,6.70
2018-07-20T05:30:56.381Z,7.00
2018-07-20T05:31:56.427Z,7.10
2018-07-20T05:32:56.451Z,7.40
2018-07-20T05:33:56.492Z,6.70
2018-07-20T05:34:56.531Z,9.00
2018-07-20T05:35:56.570Z,6.70
2018-07-20T05:36:56.608Z,7.10
2018-07-20T05:37:56.646Z,6.80
2018-07-20T05:38:56.681Z,8.70
2018-07-20T05:39:56.720Z,8.20
2018-07-20T05:40:56.758Z,6.70
2018-07-20T05:41:56.796Z,7.80
2018-07-20T05:42:56.835Z,7.00
2018-07-20T05:43:56.901Z,7.90
2018-07-20T05:44:56.916Z,9.60
2018-07-20T05:45:56.949Z,6.20
2018-07-20T05:46:56.988Z,8.10
2018-07-20T05:47:57.026Z,7.40
2018-07-20T05:48:57.064Z,8.70
2018-07-20T05:49:57.102Z,9.80
2018-07-20T05:50:57.141Z,7.80
2018-07-20T05:51:57.178Z,9.30
2018-07-20T05:52:57.217Z,7.70
2018-07-20T05:53:57.258Z,7.70
2018-07-20T05:54:57.295Z,9.00
2018-07-20T05:55:57.334Z,9.90
2018-07-20T05:56:57.371Z,11.60
2018-07-20T05:57:57.413Z,13.30
2018-07-20T05:58:57.449Z,11.90
2018-07-20T05:59:57.487Z,10.50
2018-07-20T06:00:57.525Z,9.30
2018-07-20T06:01:57.573Z,9.50
2018-07-20T06:02:57.604Z,10.80
2018-07-20T06:03:57.652Z,12.00
2018-07-20T06:04:57.689Z,12.90
2018-07-20T06:05:57.721Z,9.80
2018-07-20T06:06:57.758Z,9.90
2018-07-20T06:07:57.796Z,11.60
2018-07-20T06:08:57.838Z,11.00
2018-07-20T06:09:57.875Z,11.70
2018-07-20T06:10:57.912Z,9.30
2018-07-20T06:11:57.953Z,10.70
2018-07-20T06:12:57.988Z,10.00
2018-07-20T06:13:58.030Z,10.40
2018-07-20T06:14:58.068Z,11.70
2018-07-20T06:15:58.106Z,9.50
2018-07-20T06:16:58.152Z,9.80
2018-07-20T06:17:58.183Z,8.20
2018-07-20T06:18:58.295Z,10.20
2018-07-20T06:19:58.263Z,7.30
2018-07-20T06:20:58.302Z,10.60
2018-07-20T06:21:58.340Z,11.60
2018-07-20T06:22:58.382Z,10.60
2018-07-20T06:23:58.473Z,14.20
2018-07-20T06:24:58.460Z,8.40
2018-07-20T06:25:58.500Z,10.30
2018-07-20T06:26:58.538Z,8.80
2018-07-20T06:27:58.577Z,9.00
2018-07-20T06:28:58.616Z,8.40
2018-07-20T06:29:58.656Z,7.90
2018-07-20T06:30:58.694Z,9.30
2018-07-20T06:31:58.736Z,7.20
2018-07-20T06:32:58.774Z,6.80
2018-07-20T06:33:58.812Z,7.90
2018-07-20T06:34:58.857Z,7.40
2018-07-20T06:35:58.897Z,6.60
2018-07-20T06:36:58.931Z,7.30
2018-07-20T06:37:58.979Z,7.80
2018-07-20T06:38:59.013Z,12.10
2018-07-20T06:39:59.055Z,8.00
2018-07-20T06:40:59.094Z,9.40
2018-07-20T06:41:59.130Z,6.10
2018-07-20T06:42:59.171Z,8.40
2018-07-20T06:43:59.211Z,7.60
2018-07-20T06:44:59.250Z,7.90
2018-07-20T06:45:59.340Z,7.90
2018-07-20T06:46:59.345Z,7.50
2018-07-20T06:47:59.370Z,6.70
2018-07-20T06:48:59.411Z,9.10
2018-07-20T06:49:59.450Z,7.90
2018-07-20T06:50:59.498Z,6.50
2018-07-20T06:51:59.532Z,6.70
2018-07-20T06:52:59.574Z,7.80
2018-07-20T06:53:59.611Z,8.70
2018-07-20T06:54:59.660Z,6.50
2018-07-20T06:55:59.694Z,8.00
2018-07-20T06:56:59.731Z,5.50
2018-07-20T06:57:59.771Z,10.60
2018-07-20T06:58:59.813Z,9.10
2018-07-20T06:59:59.854Z,7.60
2018-07-20T07:00:59.892Z,5.80
2018-07-20T07:01:59.932Z,8.70
2018-07-20T07:02:59.980Z,9.10
2018-07-20T07:04:00.017Z,10.80
2018-07-20T07:05:00.056Z,8.80
2018-07-20T07:06:00.101Z,8.60
2018-07-20T07:07:00.138Z,6.80
2018-07-20T07:08:00.178Z,6.20
2018-07-20T07:09:00.220Z,9.10
2018-07-20T07:10:00.260Z,6.90
2018-07-20T07:11:00.301Z,8.00
2018-07-20T07:12:00.341Z,8.80
2018-07-20T07:13:00.380Z,8.30
2018-07-20T07:14:00.421Z,5.90
2018-07-20T07:15:00.478Z,10.30
2018-07-20T07:16:00.503Z,7.30
2018-07-20T07:17:00.544Z,7.50
2018-07-20T07:18:00.587Z,7.00
2018-07-20T07:19:00.628Z,6.80
2018-07-20T07:20:00.669Z,10.30
2018-07-20T07:21:00.708Z,7.10
2018-07-20T07:22:00.752Z,5.70
2018-07-20T07:23:00.790Z,9.50
2018-07-20T07:24:00.833Z,6.50
2018-07-20T07:25:00.874Z,6.20
2018-07-20T07:26:01.051Z,6.10
2018-07-20T07:27:00.958Z,7.10
2018-07-20T07:28:00.999Z,8.20
2018-07-20T07:29:01.040Z,7.30
2018-07-20T07:30:01.080Z,8.90
2018-07-20T07:31:01.121Z,6.50
2018-07-20T07:32:01.168Z,5.00
2018-07-20T07:33:01.207Z,6.80
2018-07-20T07:34:01.251Z,7.90
2018-07-20T07:35:01.292Z,6.20
2018-07-20T07:36:01.332Z,9.70
2018-07-20T07:37:01.377Z,6.50
2018-07-20T07:38:01.417Z,5.40
2018-07-20T07:39:01.459Z,7.90
2018-07-20T07:40:01.499Z,6.80
2018-07-20T07:41:01.549Z,7.10
2018-07-20T07:42:01.625Z,7.60
2018-07-20T07:43:01.633Z,6.00
2018-07-20T07:44:01.666Z,8.00
2018-07-20T07:45:01.712Z,8.60
2018-07-20T07:46:01.749Z,9.30
2018-07-20T07:47:01.791Z,5.10
2018-07-20T07:48:01.842Z,7.20
2018-07-20T07:49:01.877Z,7.30
2018-07-20T07:50:01.922Z,7.20
2018-07-20T07:51:01.960Z,5.30
2018-07-20T07:52:02.002Z,6.70
2018-07-20T07:53:02.046Z,7.40
2018-07-20T07:54:02.087Z,6.90
2018-07-20T07:55:02.129Z,7.40
2018-07-20T07:56:02.170Z,9.20
2018-07-20T07:57:02.220Z,6.00
2018-07-20T07:58:02.257Z,6.80
2018-07-20T07:59:02.304Z,7.30
2018-07-20T08:00:02.342Z,8.30
2018-07-20T08:01:02.382Z,9.70
2018-07-20T08:02:02.426Z,6.40
2018-07-20T08:03:02.529Z,6.40
2018-07-20T08:04:02.511Z,8.40
2018-07-20T08:05:02.554Z,7.40
2018-07-20T08:06:02.599Z,5.80
2018-07-20T08:07:02.637Z,6.40
2018-07-20T08:08:02.690Z,9.70
2018-07-20T08:09:02.723Z,7.00
2018-07-20T08:10:02.930Z,7.20
2018-07-20T08:11:02.808Z,7.40
2018-07-20T08:12:02.850Z,6.40
2018-07-20T08:13:02.892Z,9.20
2018-07-20T08:14:02.933Z,6.50
2018-07-20T08:15:02.978Z,6.40
2018-07-20T08:16:03.024Z,5.90
2018-07-20T08:17:03.061Z,8.00
2018-07-20T08:18:03.105Z,5.70
2018-07-20T08:19:03.149Z,10.20
2018-07-20T08:20:03.192Z,10.70
2018-07-20T08:21:03.234Z,5.60
2018-07-20T08:22:03.276Z,9.00
2018-07-20T08:23:03.323Z,6.70
2018-07-20T08:24:03.365Z,9.00
2018-07-20T08:25:03.406Z,6.80
2018-07-20T08:26:03.451Z,8.00
2018-07-20T08:27:03.496Z,7.90
2018-07-20T08:28:03.536Z,5.90
2018-07-20T08:29:03.581Z,6.90
2018-07-20T08:30:03.622Z,7.90
2018-07-20T08:31:03.665Z,8.70
2018-07-20T08:32:03.712Z,8.40
2018-07-20T08:33:03.754Z,6.30
2018-07-20T08:34:03.849Z,6.00
2018-07-20T08:35:03.848Z,6.90
2018-07-20T08:36:03.881Z,7.40
2018-07-20T08:37:03.924Z,6.00
2018-07-20T08:38:03.971Z,7.80
2018-07-20T08:39:04.015Z,4.80
2018-07-20T08:40:04.063Z,5.10
2018-07-20T08:41:04.115Z,5.60
2018-07-20T08:42:04.143Z,6.00
2018-07-20T08:43:04.183Z,6.60
2018-07-20T08:44:04.228Z,7.50
2018-07-20T08:45:04.308Z,4.20
2018-07-20T08:46:04.317Z,6.30
2018-07-20T08:47:04.360Z,6.70
2018-07-20T08:48:04.402Z,6.50
2018-07-20T08:49:04.444Z,5.30
2018-07-20T08:50:04.497Z,8.00
2018-07-20T08:51:04.532Z,5.20
2018-07-20T08:52:04.576Z,5.90
2018-07-20T08:53:04.617Z,6.70
2018-07-20T08:54:04.697Z,6.10
2018-07-20T08:55:04.707Z,4.30
2018-07-20T08:56:04.750Z,5.40
2018-07-20T08:57:04.792Z,5.30
2018-07-20T08:58:04.837Z,7.50
2018-07-20T08:59:04.985Z,8.90
2018-07-20T09:00:04.961Z,7.00
2018-07-20T09:01:04.966Z,6.40
2018-07-20T09:02:05.011Z,6.80
2018-07-20T09:03:05.056Z,5.80
2018-07-20T09:04:05.102Z,4.60
2018-07-20T09:05:05.139Z,5.20
2018-07-20T09:06:05.186Z,9.70
2018-07-20T09:07:05.228Z,7.90
2018-07-20T09:08:05.271Z,5.80
2018-07-20T09:09:05.317Z,8.20
2018-07-20T09:10:05.366Z,6.00
2018-07-20T09:11:05.402Z,7.30
2018-07-20T09:12:05.446Z,15.40
2018-07-20T09:13:05.488Z,8.90
2018-07-20T09:14:05.533Z,10.80
2018-07-20T09:15:05.576Z,9.60
2018-07-20T09:16:05.620Z,9.40
2018-07-20T09:17:05.662Z,9.10
2018-07-20T09:18:05.710Z,7.70
2018-07-20T09:19:05.750Z,10.40
2018-07-20T09:20:05.795Z,5.70
2018-07-20T09:21:05.924Z,8.20
2018-07-20T09:22:05.888Z,5.90
2018-07-20T09:23:05.927Z,6.40
2018-07-20T09:24:05.971Z,4.50
2018-07-20T09:25:06.065Z,8.90
2018-07-20T09:26:06.064Z,7.20
2018-07-20T09:27:06.102Z,4.60
2018-07-20T09:28:06.152Z,7.70
2018-07-20T09:29:06.190Z,4.50
2018-07-20T09:30:06.233Z,5.20
2018-07-20T09:31:06.278Z,5.90
2018-07-20T09:32:06.323Z,4.60
2018-07-20T09:33:06.364Z,4.90
2018-07-20T09:34:06.434Z,6.10
2018-07-20T09:35:06.455Z,4.90
2018-07-20T09:36:06.506Z,4.80
2018-07-20T09:37:06.540Z,5.00
2018-07-20T09:38:06.584Z,6.70
2018-07-20T09:39:06.639Z,5.30
2018-07-20T09:40:06.673Z,4.80
2018-07-20T09:41:06.717Z,3.50
2018-07-20T09:42:06.763Z,5.40
2018-07-20T09:43:06.812Z,4.00
2018-07-20T09:44:06.849Z,5.00
2018-07-20T09:45:06.893Z,3.70
2018-07-20T09:46:06.940Z,4.70
2018-07-20T09:47:06.987Z,4.60
2018-07-20T09:48:07.027Z,4.80
2018-07-20T09:49:07.074Z,7.40
2018-07-20T09:50:07.117Z,4.30
2018-07-20T09:51:07.159Z,4.90
2018-07-20T09:52:07.205Z,5.90
2018-07-20T09:53:07.257Z,3.60
2018-07-20T09:54:07.294Z,4.60
2018-07-20T09:55:07.355Z,7.60
2018-07-20T09:56:07.385Z,4.30
2018-07-20T09:57:07.428Z,5.00
2018-07-20T09:58:07.472Z,4.40
2018-07-20T09:59:07.516Z,4.60
2018-07-20T10:00:07.566Z,5.60
2018-07-20T10:01:07.603Z,5.20
2018-07-20T10:02:07.648Z,5.30
2018-07-20T10:03:07.693Z,5.00
2018-07-20T10:04:07.748Z,3.70
2018-07-20T10:05:07.835Z,3.70
2018-07-20T10:06:07.824Z,5.60
2018-07-20T10:07:07.873Z,3.90
2018-07-20T10:08:07.915Z,5.30
2018-07-20T10:09:07.959Z,3.80
2018-07-20T10:10:08.004Z,4.40
2018-07-20T10:11:08.048Z,5.90
2018-07-20T10:12:08.097Z,4.20
2018-07-20T10:13:08.138Z,5.90
2018-07-20T10:14:08.191Z,4.00
2018-07-20T10:15:08.229Z,5.30
2018-07-20T10:16:08.271Z,5.90
2018-07-20T10:17:08.316Z,7.10
2018-07-20T10:18:08.363Z,6.80
2018-07-20T10:19:08.443Z,3.80
2018-07-20T10:20:08.453Z,4.60
2018-07-20T10:21:08.499Z,7.90
2018-07-20T10:22:08.545Z,5.00
2018-07-20T10:23:08.590Z,5.00
2018-07-20T10:24:08.630Z,5.70
2018-07-20T10:25:08.675Z,6.70
2018-07-20T10:26:08.722Z,4.70
2018-07-20T10:27:48.462Z,4.00
2018-07-20T10:28:48.496Z,4.60
2018-07-20T10:29:48.540Z,5.90
2018-07-20T10:30:48.586Z,3.80
2018-07-20T10:31:48.627Z,4.00
2018-07-20T10:32:48.673Z,5.60
2018-07-20T10:33:48.718Z,5.50
2018-07-20T10:34:48.764Z,4.70
2018-07-20T10:35:48.807Z,5.60
2018-07-20T10:36:48.853Z,5.40
2018-07-20T10:37:48.904Z,6.20
2018-07-20T10:38:48.941Z,6.10
2018-07-20T10:39:48.985Z,4.50
2018-07-20T10:40:49.035Z,6.60
2018-07-20T10:41:49.079Z,4.70
2018-07-20T10:42:49.119Z,7.00
2018-07-20T10:43:49.174Z,5.60
2018-07-20T10:44:49.209Z,9.10
2018-07-20T10:45:49.257Z,5.40
2018-07-20T10:46:49.335Z,6.20
2018-07-20T10:47:49.346Z,6.20
2018-07-20T10:48:49.388Z,6.50
2018-07-20T10:49:49.440Z,4.40
2018-07-20T10:50:49.478Z,5.40
2018-07-20T10:51:49.526Z,6.60
2018-07-20T10:52:49.575Z,6.50
2018-07-20T10:53:49.613Z,5.30
2018-07-20T10:54:49.657Z,5.30
2018-07-20T10:55:49.713Z,4.30
2018-07-20T10:56:49.748Z,5.00
2018-07-20T10:57:49.793Z,4.70
2018-07-20T10:58:49.846Z,5.90
2018-07-20T10:59:49.882Z,4.20
2018-07-20T11:00:49.929Z,6.60
2018-07-20T11:01:49.973Z,4.60
2018-07-20T11:02:50.017Z,4.20
2018-07-20T11:03:50.061Z,4.90
2018-07-20T11:04:50.107Z,4.10
2018-07-20T11:05:50.161Z,6.50
2018-07-20T11:06:50.198Z,5.10
2018-07-20T11:07:50.242Z,4.70
2018-07-20T11:08:50.287Z,6.80
2018-07-20T11:09:50.336Z,7.20
2018-07-20T11:10:50.378Z,5.60
2018-07-20T11:11:50.443Z,4.70
2018-07-20T11:12:50.468Z,4.50
2018-07-20T11:13:50.514Z,4.10
2018-07-20T11:14:50.559Z,4.50
2018-07-20T11:15:50.604Z,6.40
2018-07-20T11:16:50.654Z,5.10
2018-07-20T11:17:50.695Z,4.30
2018-07-20T11:18:50.739Z,4.90
2018-07-20T11:19:50.785Z,4.30
2018-07-20T11:20:50.834Z,3.70
2018-07-20T11:21:50.874Z,5.60
2018-07-20T11:22:50.927Z,5.00
2018-07-20T11:23:50.972Z,5.10
2018-07-20T11:24:51.010Z,6.50
2018-07-20T11:25:51.057Z,3.50
2018-07-20T11:26:51.102Z,5.20
2018-07-20T11:27:51.146Z,6.00
2018-07-20T11:28:51.191Z,4.10
2018-07-20T11:29:51.238Z,4.30
2018-07-20T11:30:51.283Z,5.00
2018-07-20T11:31:51.328Z,4.30
2018-07-20T11:32:51.375Z,3.80
2018-07-20T11:33:51.421Z,4.50
2018-07-20T11:34:51.467Z,3.40
2018-07-20T11:35:51.511Z,4.90
2018-07-20T11:36:51.556Z,4.40
2018-07-20T11:37:51.602Z,6.30
2018-07-20T11:38:51.647Z,7.10
2018-07-20T11:39:51.695Z,5.30
2018-07-20T11:40:51.740Z,4.40
2018-07-20T11:41:51.794Z,4.40
2018-07-20T11:42:51.830Z,4.20
2018-07-20T11:43:51.875Z,5.20
2018-07-20T11:44:51.921Z,4.80
2018-07-20T11:45:51.970Z,4.30
2018-07-20T11:46:52.017Z,4.50
2018-07-20T11:47:52.059Z,4.90
2018-07-20T11:48:52.102Z,4.40
2018-07-20T11:49:52.149Z,3.90
2018-07-20T11:50:52.202Z,4.80
2018-07-20T11:51:52.245Z,5.10
2018-07-20T11:52:52.285Z,7.00
2018-07-20T11:53:52.331Z,5.40
2018-07-20T11:54:52.384Z,4.50
2018-07-20T11:55:52.427Z,3.90
2018-07-20T11:56:52.469Z,4.40
2018-07-20T11:57:52.515Z,4.90
2018-07-20T11:58:52.559Z,5.30
2018-07-20T11:59:52.615Z,4.80
2018-07-20T12:00:52.652Z,5.00
2018-07-20T12:01:52.739Z,5.90
2018-07-20T12:02:52.744Z,6.20
2018-07-20T12:03:52.797Z,4.30
2018-07-20T12:04:52.844Z,5.40
2018-07-20T12:05:52.887Z,3.80
2018-07-20T12:06:52.967Z,5.60
2018-07-20T12:07:52.983Z,3.70
2018-07-20T12:08:53.027Z,5.40
2018-07-20T12:09:53.067Z,3.70
2018-07-20T12:10:53.112Z,5.10
2018-07-20T12:11:53.162Z,5.20
2018-07-20T12:12:53.204Z,4.40
2018-07-20T12:13:53.252Z,5.50
2018-07-20T12:14:53.300Z,5.10
2018-07-20T12:15:53.343Z,5.70
2018-07-20T12:16:53.389Z,4.70
2018-07-20T12:17:53.438Z,5.40
2018-07-20T12:18:53.526Z,4.20
2018-07-20T12:19:53.529Z,4.60
2018-07-20T12:20:53.578Z,4.60
2018-07-20T12:21:53.638Z,4.10
2018-07-20T12:22:53.668Z,4.60
2018-07-20T12:23:53.716Z,4.60
2018-07-20T12:24:53.762Z,7.30
2018-07-20T12:25:53.809Z,4.50
2018-07-20T12:26:53.854Z,3.90
2018-07-20T12:27:53.902Z,5.70
2018-07-20T12:28:53.946Z,4.20
2018-07-20T12:29:53.995Z,4.00
2018-07-20T12:30:54.040Z,4.40
2018-07-20T12:31:54.087Z,4.60
2018-07-20T12:32:54.137Z,4.30
2018-07-20T12:33:54.232Z,5.20
2018-07-20T12:34:54.236Z,5.00
2018-07-20T12:35:54.278Z,5.10
2018-07-20T12:36:54.320Z,4.30
2018-07-20T12:37:54.368Z,3.90
2018-07-20T12:38:54.419Z,5.30
2018-07-20T12:39:54.460Z,6.30
2018-07-20T12:40:54.504Z,5.20
2018-07-20T12:41:54.557Z,5.60
2018-07-20T12:42:54.597Z,4.00
2018-07-20T12:43:54.643Z,6.80
2018-07-20T12:44:54.690Z,3.80
2018-07-20T12:45:54.737Z,5.40
2018-07-20T12:46:54.784Z,4.80
2018-07-20T12:47:54.831Z,3.80
2018-07-20T12:48:54.877Z,5.10
2018-07-20T12:49:54.924Z,4.10
2018-07-20T12:50:54.971Z,7.10
2018-07-20T12:51:55.016Z,4.40
2018-07-20T12:52:55.066Z,5.10
2018-07-20T12:53:55.111Z,4.90
2018-07-20T12:54:55.159Z,7.90
2018-07-20T12:55:55.205Z,6.50
2018-07-20T12:56:55.252Z,3.70
2018-07-20T12:57:55.298Z,6.70
2018-07-20T12:58:55.356Z,3.90
2018-07-20T12:59:55.493Z,3.70
2018-07-20T13:00:55.439Z,5.20
2018-07-20T13:01:55.490Z,4.00
2018-07-20T13:02:55.558Z,4.00
2018-07-20T13:03:55.581Z,5.50
2018-07-20T13:04:55.643Z,4.40
2018-07-20T13:05:55.676Z,4.00
2018-07-20T13:06:55.823Z,4.70
2018-07-20T13:07:55.768Z,4.20
2018-07-20T13:08:55.816Z,4.90
2018-07-20T13:09:55.864Z,3.90
2018-07-20T13:10:55.914Z,4.50
2018-07-20T13:11:56.036Z,6.60
2018-07-20T13:12:56.006Z,4.70
2018-07-20T13:13:56.059Z,4.00
2018-07-20T13:14:56.101Z,4.30
2018-07-20T13:15:56.148Z,4.90
2018-07-20T13:16:56.196Z,5.20
2018-07-20T13:17:56.302Z,4.60
2018-07-20T13:18:56.293Z,4.00